createdAt,value
2022-10-14T00:01:10.995Z,25.47
2022-10-14T00:03:41.099Z,27.60
2022-10-14T00:06:08.617Z,24.73
2022-10-14T00:08:34.965Z,27.77
2022-10-14T00:11:07.569Z,26.53
2022-10-14T00:13:34.427Z,24.77
2022-10-14T00:16:01.099Z,25.40
2022-10-14T00:18:27.483Z,26.70
2022-10-14T00:20:54.748Z,25.10
2022-10-14T00:23:21.092Z,25.17
2022-10-14T00:25:47.449Z,26.60
2022-10-14T00:28:13.847Z,28.37
2022-10-14T00:30:40.218Z,26.80
2022-10-14T00:33:06.576Z,25.00
2022-10-14T00:35:33.026Z,24.00
2022-10-14T00:37:59.659Z,26.63
2022-10-14T00:40:26.498Z,26.83
2022-10-14T00:42:52.867Z,26.13
2022-10-14T00:45:23.754Z,27.57
2022-10-14T00:47:51.719Z,27.60
2022-10-14T00:50:18.649Z,27.33
2022-10-14T00:52:45.326Z,25.70
2022-10-14T00:55:14.033Z,25.40
2022-10-14T00:57:40.583Z,26.83
2022-10-14T01:00:17.200Z,28.57
2022-10-14T01:02:43.598Z,26.87
2022-10-14T01:05:10.849Z,26.53
2022-10-14T01:07:39.924Z,26.60
2022-10-14T01:10:15.510Z,25.73
2022-10-14T01:13:02.138Z,27.10
2022-10-14T01:15:31.087Z,25.37
2022-10-14T01:18:12.414Z,26.97
2022-10-14T01:20:38.742Z,24.00
2022-10-14T01:23:11.170Z,26.00
2022-10-14T01:25:53.040Z,27.23
2022-10-14T01:28:22.510Z,25.77
2022-10-14T01:30:50.003Z,24.57
2022-10-14T01:33:24.082Z,24.73
2022-10-14T01:36:03.074Z,26.30
2022-10-14T01:38:32.282Z,25.70
2022-10-14T01:41:02.717Z,28.07
2022-10-14T01:43:30.484Z,25.60
2022-10-14T01:45:58.485Z,26.53
2022-10-14T01:48:26.895Z,25.87
2022-10-14T01:50:54.850Z,26.27
2022-10-14T01:53:26.105Z,27.17
2022-10-14T01:55:54.568Z,25.87
2022-10-14T01:58:23.336Z,24.97
2022-10-14T02:00:49.799Z,24.27
2022-10-14T02:03:16.131Z,25.33
2022-10-14T02:05:48.855Z,23.67
2022-10-14T02:08:24.031Z,26.37
2022-10-14T02:11:08.832Z,25.03
2022-10-14T02:13:43.170Z,24.20
2022-10-14T02:16:28.435Z,21.87
2022-10-14T02:19:02.976Z,22.83
2022-10-14T02:21:32.418Z,22.37
2022-10-14T02:24:07.768Z,23.00
2022-10-14T02:26:35.223Z,22.77
2022-10-14T02:29:01.988Z,23.17
2022-10-14T02:31:28.458Z,24.87
2022-10-14T02:33:56.901Z,26.87
2022-10-14T02:36:24.562Z,26.50
2022-10-14T02:38:52.561Z,24.63
2022-10-14T02:41:21.026Z,21.77
2022-10-14T02:43:47.423Z,24.37
2022-10-14T02:46:13.866Z,24.90
2022-10-14T02:48:40.317Z,25.87
2022-10-14T02:51:06.664Z,25.27
2022-10-14T02:53:32.998Z,29.90
2022-10-14T02:55:59.369Z,30.40
2022-10-14T02:58:25.719Z,27.93
2022-10-14T03:00:52.610Z,27.67
2022-10-14T03:03:19.014Z,28.23
2022-10-14T03:05:45.457Z,28.03
2022-10-14T03:08:11.823Z,27.10
2022-10-14T03:10:38.229Z,28.30
2022-10-14T03:13:04.555Z,28.40
2022-10-14T03:15:30.896Z,27.20
2022-10-14T03:17:57.271Z,38.10
2022-10-14T03:20:23.635Z,53.57
2022-10-14T03:22:49.952Z,33.80
2022-10-14T03:25:16.424Z,27.17
2022-10-14T03:27:42.878Z,27.60
2022-10-14T03:30:11.842Z,28.07
2022-10-14T03:32:38.238Z,27.60
2022-10-14T03:35:04.782Z,25.37
2022-10-14T03:37:31.109Z,25.57
2022-10-14T03:39:57.481Z,25.20
2022-10-14T03:42:24.214Z,26.23
2022-10-14T03:44:50.754Z,28.60
2022-10-14T03:47:17.095Z,29.67
2022-10-14T03:49:43.483Z,28.83
2022-10-14T03:52:09.925Z,30.87
2022-10-14T03:54:36.248Z,28.20
2022-10-14T03:57:02.603Z,29.63
2022-10-14T03:59:28.913Z,27.50
2022-10-14T04:01:55.297Z,28.57
2022-10-14T04:04:21.785Z,29.33
2022-10-14T04:06:48.103Z,27.97
2022-10-14T04:09:14.542Z,27.47
2022-10-14T04:11:40.855Z,64.57
2022-10-14T04:14:07.491Z,55.03
2022-10-14T04:16:33.819Z,31.53
2022-10-14T04:19:00.201Z,30.77
2022-10-14T04:21:26.533Z,27.60
2022-10-14T04:23:52.930Z,29.43
2022-10-14T04:26:19.272Z,27.13
2022-10-14T04:28:46.127Z,27.47
2022-10-14T04:31:12.575Z,26.83
2022-10-14T04:33:39.021Z,27.17
2022-10-14T04:36:06.114Z,28.57
2022-10-14T04:38:32.675Z,28.13
2022-10-14T04:40:59.149Z,28.60
2022-10-14T04:43:25.527Z,27.83
2022-10-14T04:45:51.992Z,26.10
2022-10-14T04:48:18.515Z,27.20
2022-10-14T04:50:44.875Z,27.30
2022-10-14T04:53:13.738Z,26.27
2022-10-14T04:55:40.747Z,25.87
2022-10-14T04:58:07.154Z,27.93
2022-10-14T05:00:33.552Z,27.00
2022-10-14T05:02:59.937Z,27.93
2022-10-14T05:05:26.274Z,27.83
2022-10-14T05:07:52.610Z,25.83
2022-10-14T05:10:18.931Z,28.13
2022-10-14T05:12:45.269Z,27.43
2022-10-14T05:15:12.756Z,26.87
2022-10-14T05:17:39.547Z,26.67
2022-10-14T05:20:06.794Z,23.60
2022-10-14T05:22:33.115Z,25.57
2022-10-14T05:24:59.426Z,26.00
2022-10-14T05:27:25.750Z,26.80
2022-10-14T05:29:52.072Z,26.70
2022-10-14T05:32:18.493Z,26.83
2022-10-14T05:34:44.926Z,27.30
2022-10-14T05:37:11.295Z,26.30
2022-10-14T05:39:37.628Z,27.03
2022-10-14T05:42:04.118Z,28.03
2022-10-14T05:44:30.471Z,28.80
2022-10-14T05:46:56.835Z,31.10
2022-10-14T05:49:23.229Z,29.57
2022-10-14T05:51:49.631Z,28.43
2022-10-14T05:54:18.538Z,31.00
2022-10-14T05:56:44.867Z,30.67
2022-10-14T05:59:11.277Z,30.70
2022-10-14T06:01:38.366Z,31.13
2022-10-14T06:04:05.227Z,30.17
2022-10-14T06:06:31.612Z,28.83
2022-10-14T06:08:58.215Z,29.70
2022-10-14T06:11:24.592Z,29.10
2022-10-14T06:13:52.190Z,27.67
2022-10-14T06:16:18.540Z,29.33
2022-10-14T06:18:44.870Z,30.53
2022-10-14T06:21:12.163Z,29.17
2022-10-14T06:23:38.521Z,29.93
2022-10-14T06:26:06.214Z,29.00
2022-10-14T06:28:32.588Z,29.20
2022-10-14T06:30:58.959Z,27.70
2022-10-14T06:33:25.291Z,27.47
2022-10-14T06:35:51.653Z,31.17
2022-10-14T06:38:17.980Z,28.97
2022-10-14T06:40:44.474Z,29.90
2022-10-14T06:43:10.867Z,27.40
2022-10-14T06:45:37.205Z,27.37
2022-10-14T06:48:04.899Z,28.33
2022-10-14T06:50:31.243Z,30.97
2022-10-14T06:52:57.674Z,29.63
2022-10-14T06:55:23.992Z,29.10
2022-10-14T06:57:50.349Z,30.63
2022-10-14T07:00:16.997Z,28.20
2022-10-14T07:02:44.327Z,29.37
2022-10-14T07:05:10.786Z,29.97
2022-10-14T07:07:37.150Z,30.80
2022-10-14T07:10:03.722Z,29.97
2022-10-14T07:12:30.111Z,32.10
2022-10-14T07:14:57.033Z,31.57
2022-10-14T07:17:23.873Z,29.43
2022-10-14T07:19:50.505Z,28.70
2022-10-14T07:22:17.678Z,30.37
2022-10-14T07:24:44.691Z,34.93
2022-10-14T07:27:11.114Z,32.00
2022-10-14T07:29:37.570Z,29.87
2022-10-14T07:32:04.014Z,30.27
2022-10-14T07:34:30.385Z,30.47
2022-10-14T07:36:56.715Z,33.27
2022-10-14T07:39:23.858Z,31.33
2022-10-14T07:41:50.187Z,33.50
2022-10-14T07:44:17.324Z,33.30
2022-10-14T07:46:44.994Z,30.60
2022-10-14T07:49:12.689Z,34.70
2022-10-14T07:51:39.520Z,31.40
2022-10-14T07:54:09.860Z,33.70
2022-10-14T07:56:37.418Z,32.10
2022-10-14T07:59:05.579Z,32.10
2022-10-14T08:01:32.019Z,31.00
2022-10-14T08:03:58.551Z,32.37
2022-10-14T08:06:25.118Z,31.40
2022-10-14T08:08:51.438Z,33.07
2022-10-14T08:11:19.939Z,31.57
2022-10-14T08:13:46.598Z,30.83
2022-10-14T08:16:23.448Z,31.50
2022-10-14T08:18:50.329Z,29.83
2022-10-14T08:21:17.214Z,29.33
2022-10-14T08:23:43.534Z,28.27
2022-10-14T08:26:23.791Z,28.53
2022-10-14T08:28:51.053Z,28.03
2022-10-14T08:31:17.539Z,27.40
2022-10-14T08:33:44.058Z,26.27
2022-10-14T08:36:10.448Z,27.90
2022-10-14T08:38:36.822Z,24.57
2022-10-14T08:41:12.178Z,24.63
2022-10-14T08:43:41.615Z,24.77
2022-10-14T08:46:45.763Z,22.77
2022-10-14T08:49:23.465Z,21.17
2022-10-14T08:52:00.943Z,21.43
2022-10-14T08:54:33.865Z,20.87
2022-10-14T08:57:00.966Z,21.27
2022-10-14T08:59:27.505Z,21.20
2022-10-14T09:01:56.991Z,20.73
2022-10-14T09:04:23.404Z,21.83
2022-10-14T09:06:50.715Z,21.17
2022-10-14T09:09:19.990Z,19.67
2022-10-14T09:11:49.487Z,20.10
2022-10-14T09:14:18.709Z,20.17
2022-10-14T09:16:50.460Z,19.83
2022-10-14T09:19:25.706Z,19.93
2022-10-14T09:21:54.009Z,19.80
2022-10-14T09:24:25.761Z,20.33
2022-10-14T09:26:53.970Z,18.63
2022-10-14T09:29:25.401Z,18.33
2022-10-14T09:31:52.765Z,18.23
2022-10-14T09:34:20.561Z,17.83
2022-10-14T09:36:48.624Z,17.50
2022-10-14T09:39:15.049Z,18.80
2022-10-14T09:41:42.102Z,18.50
2022-10-14T09:44:22.207Z,18.80
2022-10-14T09:46:50.559Z,17.93
2022-10-14T09:49:19.084Z,18.87
2022-10-14T09:51:45.790Z,17.93
2022-10-14T09:54:26.463Z,18.17
2022-10-14T09:57:00.045Z,18.23
2022-10-14T09:59:26.434Z,17.00
2022-10-14T10:01:52.757Z,19.63
2022-10-14T10:04:29.738Z,19.37
2022-10-14T10:06:56.140Z,18.17
2022-10-14T10:09:22.566Z,17.73
2022-10-14T10:11:49.271Z,19.73
2022-10-14T10:14:18.717Z,18.23
2022-10-14T10:16:45.457Z,19.13
2022-10-14T10:19:27.615Z,19.23
2022-10-14T10:21:54.346Z,19.53
2022-10-14T10:24:25.989Z,19.43
2022-10-14T10:26:55.070Z,19.93
2022-10-14T10:29:25.571Z,20.20
2022-10-14T10:32:18.539Z,18.83
2022-10-14T10:34:48.055Z,18.93
2022-10-14T10:37:17.486Z,19.23
2022-10-14T10:39:53.658Z,19.03
2022-10-14T10:42:24.123Z,17.70
2022-10-14T10:45:06.438Z,19.27
2022-10-14T10:47:45.836Z,17.43
2022-10-14T10:50:12.178Z,18.47
2022-10-14T10:52:41.625Z,19.07
2022-10-14T10:55:18.741Z,19.97
2022-10-14T10:57:54.786Z,17.00
2022-10-14T11:03:28.372Z,18.57
2022-10-14T11:06:04.033Z,18.17
2022-10-14T11:08:55.309Z,17.80
2022-10-14T11:11:43.836Z,17.83
2022-10-14T11:14:19.560Z,17.43
2022-10-14T11:16:55.107Z,16.53
2022-10-14T11:19:30.376Z,15.80
2022-10-14T11:21:59.817Z,15.47
2022-10-14T11:24:29.261Z,16.30
2022-10-14T11:26:56.463Z,16.70
2022-10-14T11:29:22.813Z,16.50
2022-10-14T11:31:55.338Z,18.07
2022-10-14T11:34:24.516Z,17.83
2022-10-14T11:37:00.640Z,16.97
2022-10-14T11:39:31.979Z,16.73
2022-10-14T11:42:13.871Z,16.93
2022-10-14T11:44:41.308Z,16.97
2022-10-14T11:47:25.471Z,16.67
2022-10-14T11:50:10.985Z,17.57
2022-10-14T11:52:40.303Z,18.27
2022-10-14T11:55:13.771Z,16.17
2022-10-14T11:57:45.393Z,17.57
2022-10-14T12:00:11.878Z,16.77
2022-10-14T12:02:57.771Z,16.97
2022-10-14T12:05:24.168Z,16.77
2022-10-14T12:08:06.882Z,17.90
2022-10-14T12:10:35.277Z,17.33
2022-10-14T12:13:02.112Z,16.87
2022-10-14T12:15:28.727Z,17.80
2022-10-14T12:17:57.513Z,15.93
2022-10-14T12:20:29.663Z,17.07
2022-10-14T12:22:57.458Z,17.30
2022-10-14T12:25:24.742Z,17.17
2022-10-14T12:27:52.241Z,16.27
2022-10-14T12:30:33.914Z,15.33
2022-10-14T12:33:02.686Z,14.70
2022-10-14T12:35:47.957Z,25.03
2022-10-14T12:38:14.281Z,13.40
2022-10-14T12:40:40.636Z,12.93
2022-10-14T12:43:13.965Z,12.73
2022-10-14T12:45:47.882Z,12.73
2022-10-14T12:48:15.879Z,13.73
2022-10-14T12:50:46.778Z,14.17
2022-10-14T12:53:27.018Z,11.70
2022-10-14T12:55:55.435Z,10.23
2022-10-14T12:58:26.910Z,10.30
2022-10-14T13:00:55.113Z,9.33
2022-10-14T13:03:24.196Z,9.37
2022-10-14T13:05:50.710Z,8.90
2022-10-14T13:08:20.091Z,8.30
2022-10-14T13:11:09.107Z,8.10
2022-10-14T13:13:38.554Z,8.10
2022-10-14T13:16:05.638Z,8.40
2022-10-14T13:18:33.590Z,8.33
2022-10-14T13:20:59.930Z,8.77
2022-10-14T13:23:44.872Z,9.17
2022-10-14T13:26:11.351Z,8.90
2022-10-14T13:28:56.869Z,9.63
2022-10-14T13:31:33.358Z,10.07
2022-10-14T13:34:26.200Z,9.87
2022-10-14T13:37:02.286Z,9.77
2022-10-14T13:39:31.460Z,9.80
2022-10-14T13:41:58.700Z,9.47
2022-10-14T13:44:25.420Z,9.63
2022-10-14T13:46:52.081Z,9.53
2022-10-14T13:49:20.710Z,9.93
2022-10-14T13:51:55.972Z,10.20
2022-10-14T13:54:26.315Z,10.03
2022-10-14T14:00:22.575Z,10.53
2022-10-14T14:02:33.948Z,9.13
2022-10-14T14:05:00.924Z,9.17
2022-10-14T14:08:14.195Z,8.00
2022-10-14T14:10:22.350Z,8.07
2022-10-14T14:12:49.043Z,8.83
2022-10-14T14:15:21.666Z,7.97
2022-10-14T14:17:48.031Z,7.53
2022-10-14T14:20:17.740Z,9.30
2022-10-14T14:22:44.096Z,9.27
2022-10-14T14:25:31.828Z,9.70
2022-10-14T14:27:59.860Z,7.73
2022-10-14T14:30:28.985Z,8.03
2022-10-14T14:32:56.179Z,7.10
2022-10-14T14:35:23.029Z,7.30
2022-10-14T14:37:56.994Z,9.17
2022-10-14T14:40:25.385Z,8.40
2022-10-14T14:42:53.654Z,7.50
2022-10-14T14:45:21.825Z,8.37
2022-10-14T14:47:49.906Z,8.60
2022-10-14T14:50:29.913Z,9.30
2022-10-14T14:52:59.374Z,9.10
2022-10-14T14:55:34.726Z,9.70
2022-10-14T14:58:02.428Z,8.27
2022-10-14T15:00:30.663Z,8.53
2022-10-14T15:03:01.434Z,9.67
2022-10-14T15:05:28.010Z,8.93
2022-10-14T15:07:54.830Z,7.80
2022-10-14T15:10:28.847Z,10.63
2022-10-14T15:12:57.339Z,8.37
2022-10-14T15:15:29.990Z,7.80
2022-10-14T15:18:11.825Z,8.70
2022-10-14T15:20:38.316Z,9.57
2022-10-14T15:23:23.428Z,10.30
2022-10-14T15:25:59.012Z,8.53
2022-10-14T15:28:32.469Z,9.70
2022-10-14T15:31:03.070Z,8.67
2022-10-14T15:33:32.138Z,10.00
2022-10-14T15:35:59.556Z,10.63
2022-10-14T15:38:26.818Z,10.93
2022-10-14T15:40:56.152Z,9.20
2022-10-14T15:43:23.766Z,14.73
2022-10-14T15:46:12.690Z,16.33
2022-10-14T15:48:47.003Z,10.57
2022-10-14T15:51:15.418Z,9.90
2022-10-14T15:53:41.760Z,9.83
2022-10-14T15:56:10.314Z,9.00
2022-10-14T15:58:36.966Z,9.10
2022-10-14T16:01:04.397Z,10.07
2022-10-14T16:03:34.787Z,9.77
2022-10-14T16:06:03.935Z,10.40
2022-10-14T16:08:30.310Z,10.40
2022-10-14T16:10:57.574Z,10.20
2022-10-14T16:13:23.970Z,10.30
2022-10-14T16:15:56.254Z,9.67
2022-10-14T16:18:24.471Z,10.60
2022-10-14T16:20:51.084Z,11.07
2022-10-14T16:23:21.447Z,8.63
2022-10-14T16:25:49.241Z,9.37
2022-10-14T16:28:16.324Z,10.93
2022-10-14T16:30:48.747Z,10.23
2022-10-14T16:33:16.240Z,9.27
2022-10-14T16:35:43.039Z,10.53
2022-10-14T16:38:11.429Z,10.90
2022-10-14T16:40:37.826Z,9.33
2022-10-14T16:43:04.504Z,9.33
2022-10-14T16:45:30.829Z,10.57
2022-10-14T16:47:57.269Z,12.97
2022-10-14T16:50:23.651Z,32.03
2022-10-14T16:53:08.711Z,13.33
2022-10-14T16:55:35.070Z,9.87
2022-10-14T16:58:01.568Z,10.27
2022-10-14T17:00:27.975Z,9.10
2022-10-14T17:02:55.155Z,8.77
2022-10-14T17:05:21.554Z,9.27
2022-10-14T17:07:47.883Z,9.63
2022-10-14T17:10:14.240Z,10.63
2022-10-14T17:12:41.018Z,11.03
2022-10-14T17:15:07.562Z,9.80
2022-10-14T17:17:33.971Z,9.47
2022-10-14T17:20:00.311Z,10.10
2022-10-14T17:22:26.905Z,9.70
2022-10-14T17:24:54.341Z,10.10
2022-10-14T17:27:24.111Z,10.00
2022-10-14T17:29:50.610Z,9.37
2022-10-14T17:32:17.595Z,9.50
2022-10-14T17:34:44.094Z,9.77
2022-10-14T17:37:10.421Z,8.80
2022-10-14T17:39:37.328Z,8.40
2022-10-14T17:42:03.987Z,8.50
2022-10-14T17:44:30.367Z,8.60
2022-10-14T17:46:57.190Z,8.00
2022-10-14T17:49:23.566Z,9.33
2022-10-14T17:51:50.190Z,8.80
2022-10-14T17:54:16.592Z,9.20
2022-10-14T17:56:43.246Z,8.83
2022-10-14T17:59:10.805Z,8.60
2022-10-14T18:02:01.018Z,8.13
2022-10-14T18:04:23.673Z,8.47
2022-10-14T18:06:50.075Z,8.07
2022-10-14T18:09:16.543Z,7.73
2022-10-14T18:14:30.095Z,7.33
2022-10-14T18:16:56.518Z,8.00
2022-10-14T18:19:22.883Z,8.60
2022-10-14T18:21:49.251Z,9.07
2022-10-14T18:24:15.745Z,6.00
2022-10-14T18:26:42.139Z,6.63
2022-10-14T18:29:08.662Z,6.33
2022-10-14T18:31:35.332Z,9.27
2022-10-14T18:34:02.090Z,7.60
2022-10-14T18:36:29.963Z,7.73
2022-10-14T18:38:57.475Z,6.90
2022-10-14T18:41:24.286Z,7.63
2022-10-14T18:43:50.945Z,6.53
2022-10-14T18:46:21.708Z,7.40
2022-10-14T18:48:49.349Z,7.00
2022-10-14T18:51:16.793Z,7.23
2022-10-14T18:53:45.168Z,6.67
2022-10-14T18:56:15.738Z,6.53
2022-10-14T18:58:42.747Z,6.07
2022-10-14T19:01:10.151Z,6.40
2022-10-14T19:03:39.859Z,6.00
2022-10-14T19:06:07.684Z,5.83
2022-10-14T19:08:35.763Z,6.80
2022-10-14T19:11:05.935Z,6.07
2022-10-14T19:13:32.335Z,6.17
2022-10-14T19:16:01.746Z,6.80
2022-10-14T19:18:28.111Z,6.60
2022-10-14T19:20:57.042Z,6.93
2022-10-14T19:23:24.820Z,6.57
2022-10-14T19:25:51.162Z,6.40
2022-10-14T19:28:18.282Z,6.63
2022-10-14T19:30:44.682Z,6.37
2022-10-14T19:33:11.010Z,6.67
2022-10-14T19:35:37.356Z,8.30
2022-10-14T19:38:03.730Z,7.50
2022-10-14T19:40:30.043Z,7.10
2022-10-14T19:42:56.377Z,6.90
2022-10-14T19:45:22.753Z,7.63
2022-10-14T19:47:49.076Z,7.13
2022-10-14T19:50:15.488Z,25.17
2022-10-14T19:52:41.839Z,13.33
2022-10-14T19:55:08.495Z,7.47
2022-10-14T19:57:34.890Z,7.77
2022-10-14T20:00:01.253Z,7.47
2022-10-14T20:02:27.705Z,6.93
2022-10-14T20:04:54.054Z,7.50
2022-10-14T20:07:20.667Z,7.50
2022-10-14T20:09:47.478Z,7.20
2022-10-14T20:12:13.800Z,7.83
2022-10-14T20:14:40.160Z,7.10
2022-10-14T20:17:06.704Z,7.33
2022-10-14T20:19:33.038Z,6.90
2022-10-14T20:22:01.582Z,6.77
2022-10-14T20:24:28.003Z,6.87
2022-10-14T20:26:54.816Z,6.03
2022-10-14T20:29:21.171Z,6.90
2022-10-14T20:31:47.533Z,5.70
2022-10-14T20:34:13.865Z,6.30
2022-10-14T20:36:40.219Z,5.87
2022-10-14T20:39:06.780Z,6.30
2022-10-14T20:41:33.114Z,6.83
2022-10-14T20:43:59.449Z,6.30
2022-10-14T20:46:25.842Z,6.10
2022-10-14T20:48:56.171Z,6.60
2022-10-14T20:51:22.941Z,7.40
2022-10-14T20:53:49.726Z,6.40
2022-10-14T20:56:16.186Z,6.50
2022-10-14T20:58:42.706Z,6.73
2022-10-14T21:01:13.889Z,6.70
2022-10-14T21:03:41.374Z,7.47
2022-10-14T21:06:09.272Z,7.53
2022-10-14T21:08:35.738Z,6.27
2022-10-14T21:11:02.899Z,6.67
2022-10-14T21:13:30.007Z,6.93
2022-10-14T21:15:56.732Z,6.97
2022-10-14T21:18:23.261Z,6.97
2022-10-14T21:20:49.907Z,6.00
2022-10-14T21:23:16.328Z,6.57
2022-10-14T21:25:43.079Z,6.07
2022-10-14T21:28:09.538Z,7.63
2022-10-14T21:30:39.944Z,6.33
2022-10-14T21:33:06.275Z,6.40
2022-10-14T21:35:32.679Z,6.40
2022-10-14T21:37:59.123Z,5.83
2022-10-14T21:40:25.469Z,6.10
2022-10-14T21:42:52.274Z,5.90
2022-10-14T21:45:18.685Z,6.43
2022-10-14T21:47:45.211Z,6.23
2022-10-14T21:50:11.643Z,6.20
2022-10-14T21:52:37.990Z,5.87
2022-10-14T21:55:04.670Z,5.77
2022-10-14T21:57:31.075Z,6.40
2022-10-14T21:59:57.426Z,5.53
2022-10-14T22:02:23.861Z,5.67
2022-10-14T22:04:50.198Z,6.03
2022-10-14T22:07:16.623Z,6.27
2022-10-14T22:09:42.935Z,5.73
2022-10-14T22:12:09.571Z,6.80
2022-10-14T22:14:36.126Z,5.50
2022-10-14T22:17:02.483Z,6.67
2022-10-14T22:19:28.841Z,6.90
2022-10-14T22:21:55.168Z,6.57
2022-10-14T22:24:21.477Z,7.03
2022-10-14T22:26:49.911Z,7.73
2022-10-14T22:29:17.106Z,6.30
2022-10-14T22:31:43.826Z,6.07
2022-10-14T22:34:11.362Z,6.90
2022-10-14T22:36:37.949Z,6.90
2022-10-14T22:39:06.351Z,7.10
2022-10-14T22:41:35.689Z,7.37
2022-10-14T22:44:02.942Z,7.10
2022-10-14T22:46:30.852Z,7.70
2022-10-14T22:48:57.911Z,7.33
2022-10-14T22:54:12.069Z,6.97
2022-10-14T22:56:38.900Z,8.50
2022-10-14T22:59:06.727Z,7.77
2022-10-14T23:01:33.441Z,8.40
2022-10-14T23:04:00.103Z,7.97
2022-10-14T23:06:26.764Z,9.20
2022-10-14T23:08:54.374Z,8.30
2022-10-14T23:11:21.692Z,8.50
2022-10-14T23:13:48.153Z,8.07
2022-10-14T23:16:15.877Z,8.47
2022-10-14T23:21:30.213Z,9.47
2022-10-14T23:23:57.714Z,8.87
2022-10-14T23:26:26.583Z,8.83
2022-10-14T23:28:54.477Z,7.63
2022-10-14T23:31:21.995Z,9.27
2022-10-14T23:33:49.150Z,8.63
2022-10-14T23:36:16.297Z,9.20
2022-10-14T23:38:43.066Z,9.27
2022-10-14T23:41:10.323Z,10.47
2022-10-14T23:43:36.741Z,9.37
2022-10-14T23:46:03.433Z,9.30
2022-10-14T23:48:29.883Z,9.03
2022-10-14T23:50:56.331Z,8.90
2022-10-14T23:53:22.718Z,9.67
2022-10-14T23:55:49.125Z,8.93
2022-10-14T23:58:15.785Z,10.43
